Time;durP1;ratioP1;P1;durP2;ratioP2;P2;SDS_P1;SDS_P2;PMS_P1;PMS_P2;Temp;Humidity;BMP_temperature;BMP_pressure;BME280_temperature;BME280_humidity;BME280_pressure;Samples;Min_cycle;Max_cycle;Signal;HPM_P1;HPM_P2
2022/12/25 00:00:13;;;;;;;3.95;2.58;;;10.20;78.90;;;;;;5058950;28;20089;-90
2022/12/25 00:02:38;;;;;;;5.10;3.00;;;10.20;78.90;;;;;;5076400;28;20029;-89
2022/12/25 00:05:05;;;;;;;5.40;2.90;;;10.20;78.90;;;;;;5058998;28;20040;-90
2022/12/25 00:07:31;;;;;;;4.43;2.92;;;10.20;78.90;;;;;;5076611;28;20378;-89
2022/12/25 00:09:57;;;;;;;5.63;2.92;;;10.20;78.90;;;;;;5076432;28;20121;-90
2022/12/25 00:12:23;;;;;;;3.65;2.60;;;10.20;79.00;;;;;;5042514;28;20041;-88
2022/12/25 00:14:48;;;;;;;4.60;2.47;;;10.20;79.00;;;;;;5042246;28;20431;-90
2022/12/25 00:17:14;;;;;;;4.47;2.60;;;10.20;79.00;;;;;;5076763;28;20055;-91
2022/12/25 00:19:40;;;;;;;4.15;2.50;;;10.30;79.00;;;;;;5042518;28;20454;-83
2022/12/25 00:22:05;;;;;;;5.10;2.53;;;10.20;79.00;;;;;;5042251;28;20028;-89
2022/12/25 00:24:31;;;;;;;6.28;2.55;;;10.20;79.00;;;;;;5058526;28;20036;-88
2022/12/25 00:26:57;;;;;;;4.63;2.95;;;10.20;79.10;;;;;;5076452;28;20048;-90
2022/12/25 00:29:23;;;;;;;4.93;2.72;;;10.20;79.00;;;;;;5058967;28;20024;-88
2022/12/25 00:31:48;;;;;;;4.45;2.70;;;10.20;79.10;;;;;;5041269;28;20041;-87
2022/12/25 00:34:14;;;;;;;4.05;2.65;;;10.20;79.10;;;;;;5074041;28;20411;-88
2022/12/25 00:36:40;;;;;;;3.70;2.67;;;10.20;79.10;;;;;;5057659;28;20028;-88
2022/12/25 00:39:06;;;;;;;3.50;2.42;;;10.20;79.10;;;;;;5074786;28;20041;-88
2022/12/25 00:44:16;;;;;;;4.65;2.78;;;10.20;79.10;;;;;;5057979;28;20385;-89
2022/12/25 00:46:43;;;;;;;4.20;2.53;;;10.20;79.10;;;;;;5074965;28;20028;-89
2022/12/25 00:49:10;;;;;;;3.22;2.47;;;10.30;79.20;;;;;;5075429;28;20048;-88
2022/12/25 00:51:36;;;;;;;4.93;2.70;;;10.30;79.20;;;;;;5041457;28;20037;-90
2022/12/25 00:54:02;;;;;;;4.85;2.70;;;10.30;79.20;;;;;;5057564;28;20032;-89
2022/12/25 00:56:28;;;;;;;2.67;2.28;;;10.30;79.20;;;;;;5074115;28;20032;-88
2022/12/25 00:58:54;;;;;;;4.82;2.30;;;10.30;79.20;;;;;;5041505;28;20024;-88
2022/12/25 01:01:20;;;;;;;4.55;2.60;;;10.30;79.20;;;;;;5057728;28;20024;-89
2022/12/25 01:03:45;;;;;;;6.18;3.13;;;10.30;79.20;;;;;;5041312;28;20470;-89
2022/12/25 01:06:12;;;;;;;5.75;2.80;;;10.30;79.20;;;;;;5058408;28;20032;-90
2022/12/25 01:10:21;;;;;;;6.18;3.22;;;10.30;79.20;;;;;;5040695;28;20487;-88
2022/12/25 01:11:29;;;;;;;3.90;2.67;;;10.30;79.20;;;;;;5074983;28;20036;-89
2022/12/25 01:13:54;;;;;;;5.88;2.88;;;10.30;79.20;;;;;;5074660;28;20051;-89
2022/12/25 01:16:20;;;;;;;3.60;2.67;;;10.30;79.20;;;;;;5074054;28;20032;-88
2022/12/25 01:18:46;;;;;;;4.47;2.70;;;10.40;79.30;;;;;;5074102;28;20032;-89
2022/12/25 01:21:15;;;;;;;4.10;2.55;;;10.40;79.30;;;;;;5075218;28;20027;-88
2022/12/25 01:23:42;;;;;;;4.95;2.42;;;10.40;79.30;;;;;;5057675;28;20539;-87
2022/12/25 01:26:11;;;;;;;6.00;2.50;;;10.40;79.20;;;;;;5074203;28;20033;-88
2022/12/25 01:28:38;;;;;;;4.75;2.85;;;10.40;79.20;;;;;;5057191;28;20028;-89
2022/12/25 01:31:08;;;;;;;3.78;2.50;;;10.50;79.30;;;;;;5057019;28;20107;-89
2022/12/25 01:33:34;;;;;;;5.45;3.20;;;10.40;79.20;;;;;;5057155;28;20087;-89
2022/12/25 01:36:00;;;;;;;4.35;2.67;;;10.50;79.20;;;;;;5057589;28;20029;-88
2022/12/25 01:38:25;;;;;;;4.22;2.45;;;10.40;79.30;;;;;;5041577;28;20366;-90
2022/12/25 01:40:51;;;;;;;5.18;2.67;;;10.50;79.30;;;;;;5056893;28;20037;-90
2022/12/25 01:43:24;;;;;;;3.67;2.20;;;10.50;79.30;;;;;;5041183;28;20452;-90
2022/12/25 01:45:51;;;;;;;3.75;2.42;;;10.50;79.40;;;;;;5057401;28;20036;-90
2022/12/25 01:48:26;;;;;;;3.90;2.58;;;10.50;79.40;;;;;;5073877;28;20539;-89
2022/12/25 01:50:59;;;;;;;2.60;2.20;;;10.50;79.40;;;;;;5056917;28;20039;-90
2022/12/25 01:53:25;;;;;;;4.90;2.60;;;10.50;79.40;;;;;;5057293;28;20028;-90
2022/12/25 01:55:57;;;;;;;4.00;2.63;;;10.50;79.40;;;;;;5074990;28;20033;-89
2022/12/25 01:58:23;;;;;;;3.53;2.53;;;10.50;79.40;;;;;;5079124;28;20029;-90
2022/12/25 02:00:51;;;;;;;4.65;2.50;;;10.60;79.40;;;;;;5061482;28;20039;-90
2022/12/25 02:03:18;;;;;;;4.53;2.90;;;10.50;79.30;;;;;;5078152;28;20040;-90
2022/12/25 02:05:45;;;;;;;4.45;2.70;;;10.60;79.40;;;;;;5061516;28;20115;-89
2022/12/25 02:08:13;;;;;;;3.92;2.47;;;10.60;79.40;;;;;;5060831;28;20106;-89
2022/12/25 02:10:39;;;;;;;5.15;2.75;;;10.60;79.30;;;;;;5077619;28;20048;-89
2022/12/25 02:13:06;;;;;;;5.10;2.67;;;10.60;79.30;;;;;;5077329;28;20037;-90
2022/12/25 02:15:53;;;;;;;4.20;2.83;;;10.60;79.30;;;;;;5061053;28;20025;-90
2022/12/25 02:18:47;;;;;;;3.83;2.40;;;10.60;79.50;;;;;;5060970;28;20055;-90
2022/12/25 02:21:15;;;;;;;3.63;2.50;;;10.60;79.50;;;;;;5061062;28;20032;-91
2022/12/25 02:24:14;;;;;;;3.50;2.28;;;10.60;79.40;;;;;;5060669;28;20037;-89
2022/12/25 02:26:49;;;;;;;4.28;2.40;;;10.60;79.50;;;;;;5060555;28;20032;-89
2022/12/25 02:29:29;;;;;;;5.35;2.70;;;10.60;79.40;;;;;;5077756;28;20029;-89
2022/12/25 02:32:06;;;;;;;3.83;2.40;;;10.60;79.40;;;;;;5060722;28;20033;-89
2022/12/25 02:34:56;;;;;;;4.53;2.80;;;10.60;79.40;;;;;;5077269;28;20060;-88
2022/12/25 02:37:23;;;;;;;3.30;2.42;;;10.60;79.50;;;;;;5060908;28;20036;-89
2022/12/25 02:40:08;;;;;;;3.45;2.30;;;10.60;79.40;;;;;;5060249;28;20044;-88
2022/12/25 03:08:10;;;;;;;3.88;2.30;;;10.70;79.40;;;;;;5056052;28;20045;-89
2022/12/25 03:13:30;;;;;;;4.55;2.75;;;10.70;79.40;;;;;;5077776;28;20038;-89
2022/12/25 03:18:41;;;;;;;3.85;2.67;;;10.70;79.40;;;;;;5049273;28;20100;-88
2022/12/25 03:26:54;;;;;;;3.08;2.28;;;10.70;79.40;;;;;;5077939;28;20031;-89
2022/12/25 03:32:19;;;;;;;3.42;2.33;;;10.70;79.40;;;;;;5077240;28;20037;-88
2022/12/25 04:36:08;;;;;;;3.50;2.17;;;10.70;79.20;;;;;;5058300;28;20079;-88
2022/12/25 04:38:34;;;;;;;3.55;2.42;;;10.70;79.20;;;;;;5060960;28;20040;-89
2022/12/25 04:41:01;;;;;;;4.55;2.25;;;10.70;79.20;;;;;;5074814;28;20027;-89
2022/12/25 04:43:27;;;;;;;3.38;2.17;;;10.70;79.20;;;;;;5057883;28;20104;-89
2022/12/25 04:45:54;;;;;;;3.30;2.20;;;10.70;79.20;;;;;;5041094;28;20540;-88
2022/12/25 04:48:20;;;;;;;3.00;2.30;;;10.70;79.20;;;;;;5057536;28;20062;-88
2022/12/25 04:50:46;;;;;;;3.85;2.50;;;10.70;79.20;;;;;;5058848;28;20104;-89
2022/12/25 04:53:12;;;;;;;2.17;1.95;;;10.70;79.20;;;;;;5041347;28;20424;-89
2022/12/25 04:55:37;;;;;;;4.20;2.40;;;10.70;79.20;;;;;;5042094;28;20109;-88
2022/12/25 04:58:03;;;;;;;3.17;2.20;;;10.70;79.20;;;;;;5057218;28;20028;-88
2022/12/25 05:00:29;;;;;;;2.63;2.25;;;10.70;79.20;;;;;;5076235;28;20111;-88
2022/12/25 05:02:56;;;;;;;3.25;2.35;;;10.80;79.30;;;;;;5058150;28;20582;-89
2022/12/25 05:05:22;;;;;;;3.60;2.50;;;10.80;79.30;;;;;;5074734;28;20051;-89
2022/12/25 05:07:48;;;;;;;4.28;2.58;;;10.80;79.30;;;;;;5041201;28;20445;-88
2022/12/25 05:10:14;;;;;;;2.78;2.20;;;10.80;79.20;;;;;;5076087;28;20020;-90
2022/12/25 05:12:40;;;;;;;2.53;2.00;;;10.80;79.20;;;;;;5075361;28;20127;-89
2022/12/25 05:15:06;;;;;;;3.53;2.30;;;10.80;79.20;;;;;;5075571;28;20104;-87
2022/12/25 05:17:32;;;;;;;3.80;2.40;;;10.80;79.20;;;;;;5074856;28;20032;-88
2022/12/25 05:19:58;;;;;;;2.33;2.13;;;10.80;79.20;;;;;;5058800;28;20028;-88
2022/12/25 05:22:24;;;;;;;3.78;2.30;;;10.80;79.20;;;;;;5074998;28;20036;-88
2022/12/25 05:24:49;;;;;;;3.80;2.42;;;10.80;79.20;;;;;;5074619;28;20039;-88
2022/12/25 05:27:15;;;;;;;2.53;2.08;;;10.80;79.20;;;;;;5074885;28;20056;-87
2022/12/25 05:29:41;;;;;;;2.58;2.20;;;10.80;79.20;;;;;;5074247;28;20033;-88
2022/12/25 05:32:07;;;;;;;2.47;1.90;;;10.80;79.20;;;;;;5074504;28;20032;-87
2022/12/25 05:34:32;;;;;;;3.22;2.00;;;10.80;79.20;;;;;;5057168;28;20653;-88
2022/12/25 05:36:58;;;;;;;2.42;2.03;;;10.80;79.20;;;;;;5074428;28;20032;-86
2022/12/25 05:39:24;;;;;;;2.70;2.10;;;10.80;79.20;;;;;;5040888;28;20054;-88
2022/12/25 05:41:50;;;;;;;2.45;2.00;;;10.80;79.20;;;;;;5074791;28;20079;-88
2022/12/25 05:44:16;;;;;;;2.95;2.17;;;10.80;79.20;;;;;;5040171;28;20461;-88
2022/12/25 05:46:42;;;;;;;2.85;2.08;;;10.80;79.10;;;;;;5073945;28;20420;-87
2022/12/25 05:49:08;;;;;;;2.67;2.05;;;10.80;79.10;;;;;;5073729;28;20036;-88
2022/12/25 05:51:34;;;;;;;3.17;2.20;;;10.80;79.10;;;;;;5074179;28;20079;-86
2022/12/25 05:53:59;;;;;;;2.83;2.30;;;10.80;79.20;;;;;;5058213;28;20029;-87
2022/12/25 05:56:25;;;;;;;3.50;2.20;;;10.80;79.10;;;;;;5058469;28;20073;-87
2022/12/25 05:58:51;;;;;;;2.95;2.38;;;10.70;79.10;;;;;;5076845;28;20438;-88
2022/12/25 06:01:19;;;;;;;3.55;2.10;;;10.80;79.20;;;;;;5059994;28;20080;-88
2022/12/25 06:03:45;;;;;;;2.50;2.00;;;10.80;79.20;;;;;;5078344;28;20469;-87
2022/12/25 06:06:12;;;;;;;2.58;2.08;;;10.70;79.10;;;;;;5063252;28;20056;-88
2022/12/25 06:08:38;;;;;;;2.50;1.95;;;10.80;79.10;;;;;;5064393;28;20029;-86
2022/12/25 06:11:06;;;;;;;3.03;2.47;;;10.70;79.70;;;;;;5048775;28;20098;-87
2022/12/25 06:13:33;;;;;;;2.50;2.15;;;10.80;79.20;;;;;;5065483;28;20037;-88
2022/12/25 06:15:59;;;;;;;3.05;2.05;;;10.70;79.10;;;;;;5062447;28;20392;-87
2022/12/25 06:18:25;;;;;;;2.35;1.90;;;10.70;79.10;;;;;;5059091;28;20048;-88
2022/12/25 06:20:51;;;;;;;3.20;2.00;;;10.70;79.10;;;;;;5058681;28;20134;-88
2022/12/25 06:23:17;;;;;;;2.55;2.08;;;10.70;79.10;;;;;;5057637;28;20097;-88
2022/12/25 06:25:42;;;;;;;2.70;1.95;;;10.70;79.10;;;;;;5057157;28;20033;-88
2022/12/25 06:28:08;;;;;;;2.38;2.13;;;10.70;79.10;;;;;;5073386;28;20029;-87
2022/12/25 06:30:34;;;;;;;2.50;2.30;;;10.70;79.10;;;;;;5074477;28;20124;-88
2022/12/25 06:32:59;;;;;;;2.55;2.15;;;10.70;79.10;;;;;;5074050;28;20033;-88
2022/12/25 06:35:27;;;;;;;2.40;2.17;;;10.70;79.70;;;;;;5056833;28;20056;-88
2022/12/25 06:37:52;;;;;;;3.25;2.17;;;10.70;79.10;;;;;;5074373;28;20439;-88
2022/12/25 06:40:18;;;;;;;3.35;2.15;;;10.70;79.10;;;;;;5074327;28;20039;-88
2022/12/25 06:42:44;;;;;;;3.47;2.30;;;10.70;79.20;;;;;;5056601;28;20056;-88
2022/12/25 06:45:10;;;;;;;3.17;2.45;;;10.70;79.10;;;;;;5076594;28;20037;-88
2022/12/25 06:47:37;;;;;;;2.72;2.10;;;10.70;79.10;;;;;;5077798;28;20020;-88
2022/12/25 06:50:04;;;;;;;2.90;2.50;;;10.70;79.10;;;;;;5060188;28;20460;-88
2022/12/25 06:52:33;;;;;;;2.15;1.95;;;10.70;79.10;;;;;;5076762;28;20041;-87
2022/12/25 06:54:59;;;;;;;3.08;2.22;;;10.70;79.10;;;;;;5077054;28;20377;-88
2022/12/25 06:57:25;;;;;;;3.45;2.30;;;10.60;79.10;;;;;;5043066;28;20027;-88
2022/12/25 06:59:50;;;;;;;3.35;2.50;;;10.60;79.10;;;;;;5076096;28;20154;-88
2022/12/25 07:02:20;;;;;;;2.67;2.28;;;10.60;79.00;;;;;;5076757;28;20032;-87
2022/12/25 07:04:46;;;;;;;2.75;2.28;;;10.70;79.20;;;;;;5060232;28;20025;-88
2022/12/25 07:07:13;;;;;;;5.30;2.50;;;10.60;79.10;;;;;;5060030;28;20039;-86
2022/12/25 07:09:41;;;;;;;2.65;2.20;;;10.60;79.10;;;;;;5077598;28;20025;-87
2022/12/25 07:12:12;;;;;;;3.80;2.35;;;10.60;79.10;;;;;;5059902;28;20035;-87
2022/12/25 07:14:41;;;;;;;3.45;2.28;;;10.60;79.20;;;;;;5076841;28;20036;-86
2022/12/25 07:17:07;;;;;;;3.13;2.22;;;10.60;79.10;;;;;;5059582;28;20430;-87
2022/12/25 07:19:32;;;;;;;4.93;2.75;;;10.60;79.10;;;;;;5075963;28;20024;-87
2022/12/25 07:21:58;;;;;;;3.47;2.50;;;10.60;79.10;;;;;;5059194;28;20032;-86
2022/12/25 07:24:24;;;;;;;3.13;2.40;;;10.60;79.20;;;;;;5076088;28;20029;-88
2022/12/25 07:26:50;;;;;;;2.72;2.42;;;10.60;79.10;;;;;;5059769;28;20032;-86
2022/12/25 07:29:18;;;;;;;2.95;2.20;;;10.60;79.20;;;;;;5043203;28;20021;-87
2022/12/25 07:31:44;;;;;;;2.70;2.25;;;10.60;79.20;;;;;;5076382;28;20129;-88
2022/12/25 07:34:10;;;;;;;3.88;2.33;;;10.60;79.20;;;;;;5075933;28;20053;-87
2022/12/25 07:36:36;;;;;;;2.92;2.05;;;10.70;79.20;;;;;;5075762;28;20059;-87
2022/12/25 07:39:01;;;;;;;3.38;2.47;;;10.60;79.20;;;;;;5075782;28;20064;-88
2022/12/25 07:41:27;;;;;;;3.40;2.25;;;10.60;79.20;;;;;;5076778;28;20447;-88
2022/12/25 07:44:11;;;;;;;3.13;2.33;;;10.60;79.20;;;;;;5045161;28;20040;-88
2022/12/25 07:46:37;;;;;;;4.03;2.30;;;10.60;79.20;;;;;;5059268;28;20086;-88
2022/12/25 07:49:03;;;;;;;3.38;2.40;;;10.60;79.20;;;;;;5059271;28;20032;-88
2022/12/25 07:51:29;;;;;;;5.85;2.65;;;10.60;79.20;;;;;;5076799;28;20036;-88
2022/12/25 07:53:55;;;;;;;3.05;2.33;;;10.60;79.20;;;;;;5075305;28;20036;-87
2022/12/25 07:56:21;;;;;;;3.35;2.53;;;10.60;79.20;;;;;;5058451;28;20080;-88
2022/12/25 07:58:47;;;;;;;4.07;2.65;;;10.60;79.20;;;;;;5058634;28;20056;-88
2022/12/25 08:01:19;;;;;;;3.78;2.30;;;10.60;79.20;;;;;;5076390;28;20103;-87
2022/12/25 08:03:55;;;;;;;4.13;2.72;;;10.70;79.30;;;;;;5058986;28;20564;-86
2022/12/25 08:06:23;;;;;;;3.55;2.60;;;10.70;79.30;;;;;;5076633;28;20029;-88
2022/12/25 08:08:49;;;;;;;2.67;2.25;;;10.70;79.30;;;;;;5058485;28;20060;-87
2022/12/25 08:11:15;;;;;;;3.47;2.30;;;10.70;79.30;;;;;;5058435;28;20040;-87
2022/12/25 08:13:41;;;;;;;4.00;2.50;;;10.70;79.30;;;;;;5076298;28;20021;-87
2022/12/25 08:16:08;;;;;;;3.53;2.33;;;10.70;79.30;;;;;;5042648;28;20037;-86
2022/12/25 08:18:36;;;;;;;3.95;2.75;;;10.70;79.30;;;;;;5075001;28;20028;-89
2022/12/25 08:21:13;;;;;;;2.78;2.17;;;10.70;79.30;;;;;;5058251;28;20369;-85
2022/12/25 08:23:42;;;;;;;2.63;2.20;;;10.70;79.30;;;;;;5058016;28;20033;-84
2022/12/25 08:26:10;;;;;;;2.97;2.33;;;10.70;79.30;;;;;;5057989;28;20032;-81
2022/12/25 08:28:36;;;;;;;3.45;2.40;;;10.70;79.30;;;;;;5074906;28;20024;-83
2022/12/25 08:31:17;;;;;;;3.50;2.42;;;10.70;79.30;;;;;;5057722;28;20463;-84
2022/12/25 08:33:43;;;;;;;3.55;2.40;;;10.70;79.30;;;;;;5041114;28;20052;-86
2022/12/25 08:36:10;;;;;;;3.72;2.40;;;10.70;79.20;;;;;;5084153;28;20484;-88
2022/12/25 08:38:37;;;;;;;2.72;2.38;;;10.80;79.40;;;;;;5082525;28;20127;-85
2022/12/25 08:41:03;;;;;;;3.08;2.30;;;10.70;79.30;;;;;;5076906;28;20082;-86
2022/12/25 08:43:29;;;;;;;3.38;2.38;;;10.80;79.30;;;;;;5041514;28;20036;-85
2022/12/25 08:45:55;;;;;;;3.65;2.33;;;10.80;79.40;;;;;;5075060;28;20066;-86
2022/12/25 08:48:21;;;;;;;4.00;2.45;;;10.80;79.30;;;;;;5041179;28;20384;-87
2022/12/25 08:50:48;;;;;;;4.07;2.50;;;10.70;79.30;;;;;;5057635;28;20392;-87
2022/12/25 08:53:14;;;;;;;2.92;2.30;;;10.80;79.30;;;;;;5074739;28;20032;-88
2022/12/25 08:55:40;;;;;;;3.58;2.45;;;10.80;79.30;;;;;;5057887;28;20035;-88
2022/12/25 08:58:06;;;;;;;3.80;2.42;;;10.80;79.30;;;;;;5041656;28;20032;-85
2022/12/25 09:00:32;;;;;;;3.90;2.33;;;10.80;79.30;;;;;;5074127;28;20050;-84
2022/12/25 09:02:57;;;;;;;3.25;2.25;;;10.80;79.30;;;;;;5040410;28;20040;-86
2022/12/25 09:05:23;;;;;;;3.70;2.50;;;10.80;79.30;;;;;;5056731;28;20544;-87
2022/12/25 09:07:49;;;;;;;3.10;2.20;;;10.80;79.30;;;;;;5074293;28;20040;-88
2022/12/25 09:10:15;;;;;;;3.25;2.25;;;10.90;79.30;;;;;;5057336;28;20036;-90
2022/12/25 09:12:40;;;;;;;2.70;2.10;;;10.90;79.30;;;;;;5073877;28;20026;-87
2022/12/25 09:15:06;;;;;;;2.75;2.10;;;10.90;79.30;;;;;;5073972;28;20029;-84
2022/12/25 09:17:32;;;;;;;3.88;2.30;;;10.90;79.30;;;;;;5073754;28;20477;-84
2022/12/25 09:19:59;;;;;;;3.53;2.60;;;10.90;79.30;;;;;;5076188;28;20021;-88
2022/12/25 09:22:24;;;;;;;3.20;2.30;;;10.90;79.30;;;;;;5057097;28;20036;-92
2022/12/25 09:24:50;;;;;;;3.22;2.15;;;10.90;79.30;;;;;;5041621;28;20040;-89
2022/12/25 09:27:16;;;;;;;3.35;2.55;;;10.90;79.30;;;;;;5076205;28;20036;-91
2022/12/25 09:29:42;;;;;;;3.45;2.38;;;10.90;79.30;;;;;;5058966;28;20106;-91
2022/12/25 09:32:08;;;;;;;4.05;2.63;;;10.90;79.30;;;;;;5057407;28;20063;-88
2022/12/25 09:34:34;;;;;;;3.22;2.22;;;10.90;79.30;;;;;;5058003;28;20045;-87
2022/12/25 09:37:00;;;;;;;3.60;2.33;;;10.90;79.30;;;;;;5075620;28;20094;-90
2022/12/25 09:39:26;;;;;;;3.20;2.05;;;10.90;79.30;;;;;;5043410;28;20457;-90
2022/12/25 09:42:12;;;;;;;3.20;2.20;;;10.90;79.30;;;;;;5076358;28;20078;-88
2022/12/25 09:44:47;;;;;;;3.53;2.30;;;10.90;79.30;;;;;;5076124;28;20037;-86
2022/12/25 09:47:15;;;;;;;;;;;10.90;79.30;;;;;;5058619;28;20024;-91
2022/12/25 09:49:45;;;;;;;2.50;1.90;;;10.90;79.20;;;;;;5058489;28;19982;-93
2022/12/25 09:52:16;;;;;;;3.15;2.17;;;10.90;79.10;;;;;;5058952;28;20024;-92
2022/12/25 09:55:02;;;;;;;2.83;1.98;;;11.00;79.20;;;;;;5076146;28;20025;-92
2022/12/25 09:57:28;;;;;;;2.63;1.83;;;11.00;79.30;;;;;;5079285;28;20028;-95
2022/12/25 09:59:54;;;;;;;2.70;2.22;;;11.00;79.20;;;;;;5061307;28;20055;-95
2022/12/25 10:02:35;;;;;;;3.05;2.20;;;11.00;79.30;;;;;;5063233;28;20032;-92
2022/12/25 10:05:07;;;;;;;3.42;2.28;;;11.00;79.30;;;;;;5080350;28;20107;-94
2022/12/25 10:07:42;;;;;;;2.92;2.10;;;11.00;79.20;;;;;;5075644;28;20031;-91
2022/12/25 10:10:26;;;;;;;3.50;2.35;;;11.00;79.20;;;;;;5074930;28;20032;-93
2022/12/25 10:12:57;;;;;;;3.40;1.90;;;11.00;79.30;;;;;;5057245;28;20037;-87
2022/12/25 10:15:32;;;;;;;3.38;2.17;;;11.00;79.30;;;;;;5073235;28;20024;-88
2022/12/25 10:18:15;;;;;;;2.13;1.92;;;11.00;79.30;;;;;;5056148;28;20099;-84
2022/12/25 10:20:51;;;;;;;3.45;2.35;;;11.00;79.20;;;;;;5077159;28;20067;-92
2022/12/25 10:23:27;;;;;;;2.60;1.92;;;11.10;79.30;;;;;;5077643;28;20033;-84
2022/12/25 10:25:54;;;;;;;2.70;1.95;;;11.10;79.20;;;;;;5077941;28;20525;-86
2022/12/25 10:28:34;;;;;;;3.15;2.03;;;11.10;79.20;;;;;;5060397;28;20488;-84
2022/12/25 10:31:14;;;;;;;3.47;2.03;;;11.00;79.20;;;;;;5060700;28;20021;-84
2022/12/25 10:33:40;;;;;;;3.13;2.03;;;11.10;79.30;;;;;;5059726;28;20053;-85
2022/12/25 10:36:08;;;;;;;2.30;2.10;;;11.10;79.20;;;;;;5060423;28;20044;-84
2022/12/25 10:38:35;;;;;;;2.45;2.00;;;11.10;79.20;;;;;;5060194;28;20166;-84
2022/12/25 10:41:04;;;;;;;3.67;2.28;;;11.10;79.20;;;;;;5076877;28;20060;-85
2022/12/25 10:43:48;;;;;;;3.40;2.05;;;11.10;79.20;;;;;;5078009;28;20039;-85
2022/12/25 10:46:15;;;;;;;2.08;1.83;;;11.10;79.20;;;;;;5076792;28;20465;-84
2022/12/25 10:48:46;;;;;;;2.50;1.98;;;11.10;79.10;;;;;;5077737;28;20033;-84
2022/12/25 10:51:12;;;;;;;2.25;1.85;;;11.10;79.10;;;;;;5060160;28;20466;-85
2022/12/25 10:53:42;;;;;;;2.13;1.70;;;11.10;79.10;;;;;;5059741;28;20048;-84
2022/12/25 10:56:16;;;;;;;3.25;2.15;;;11.10;79.20;;;;;;5075922;28;20028;-83
2022/12/25 10:58:42;;;;;;;3.25;2.22;;;11.20;79.20;;;;;;5059871;28;20416;-85
2022/12/25 11:01:08;;;;;;;2.20;2.00;;;11.20;79.20;;;;;;5060616;28;20052;-84
2022/12/25 11:03:37;;;;;;;2.75;2.30;;;11.20;79.20;;;;;;5080355;28;20041;-82
2022/12/25 11:06:05;;;;;;;4.13;2.20;;;11.20;79.20;;;;;;5049923;28;20024;-83
2022/12/25 11:08:33;;;;;;;2.95;2.10;;;11.20;79.20;;;;;;5060455;28;20024;-83
2022/12/25 11:11:07;;;;;;;2.70;2.20;;;11.20;79.20;;;;;;5076473;28;20170;-85
2022/12/25 11:13:38;;;;;;;3.22;2.17;;;11.20;79.20;;;;;;5076869;28;20033;-82
2022/12/25 11:16:08;;;;;;;3.40;2.13;;;11.20;79.10;;;;;;5042233;28;20024;-87
2022/12/25 11:18:50;;;;;;;2.20;2.00;;;11.20;79.10;;;;;;5076328;28;20032;-84
2022/12/25 11:21:22;;;;;;;2.30;2.10;;;11.20;79.20;;;;;;5042393;28;20107;-89
2022/12/25 11:24:16;;;;;;;3.35;2.10;;;11.20;79.10;;;;;;5076089;28;20477;-87
2022/12/25 11:27:05;;;;;;;2.88;2.22;;;11.20;79.10;;;;;;5059267;28;20523;-83
2022/12/25 11:29:49;;;;;;;3.85;2.25;;;11.30;79.10;;;;;;5076458;28;20029;-84
2022/12/25 11:32:43;;;;;;;2.63;2.20;;;11.30;79.20;;;;;;5058664;28;20033;-85
2022/12/25 11:35:13;;;;;;;2.00;1.80;;;11.30;79.20;;;;;;5075469;28;20044;-85
2022/12/25 11:37:41;;;;;;;2.83;1.98;;;11.20;79.00;;;;;;5076495;28;20526;-85
2022/12/25 11:40:23;;;;;;;2.10;1.75;;;11.30;79.10;;;;;;5075433;28;20029;-86
2022/12/25 11:43:01;;;;;;;2.67;1.80;;;11.30;79.20;;;;;;5059158;28;20028;-86
2022/12/25 11:45:36;;;;;;;2.33;1.88;;;11.30;79.20;;;;;;5058959;28;20035;-85
2022/12/25 11:48:14;;;;;;;3.10;1.92;;;11.30;79.10;;;;;;5059070;28;20025;-85
2022/12/25 11:50:48;;;;;;;2.85;2.05;;;11.30;79.10;;;;;;5041487;28;20024;-87
2022/12/25 11:53:27;;;;;;;2.63;2.15;;;11.30;79.10;;;;;;5060053;28;20028;-87
2022/12/25 11:55:58;;;;;;;2.22;1.80;;;11.30;79.10;;;;;;5042617;28;20036;-86
2022/12/25 11:58:55;;;;;;;3.25;2.10;;;11.30;79.10;;;;;;5042663;28;20031;-88
2022/12/25 12:01:27;;;;;;;2.70;1.95;;;11.30;79.20;;;;;;5075465;28;20085;-85
2022/12/25 12:03:54;;;;;;;2.67;2.10;;;11.30;79.00;;;;;;5076236;28;20055;-87
2022/12/25 12:06:33;;;;;;;3.97;2.00;;;11.40;79.10;;;;;;5041616;28;20036;-85
2022/12/25 12:09:37;;;;;;;3.28;2.30;;;11.40;79.10;;;;;;5058590;28;20028;-86
2022/12/25 12:12:37;;;;;;;3.03;2.22;;;11.30;79.10;;;;;;5035837;28;20497;-86
2022/12/25 12:15:15;;;;;;;2.92;1.90;;;11.40;79.20;;;;;;5075894;28;20024;-86
2022/12/25 12:17:40;;;;;;;2.10;1.90;;;11.40;79.10;;;;;;5076052;28;20033;-87
2022/12/25 12:20:31;;;;;;;2.45;2.05;;;11.40;79.10;;;;;;5058604;28;20051;-83
2022/12/25 12:22:59;;;;;;;2.67;2.08;;;11.40;79.20;;;;;;5058174;28;20524;-86
2022/12/25 12:25:25;;;;;;;2.90;2.28;;;11.40;79.00;;;;;;5075624;28;20469;-86
2022/12/25 12:27:55;;;;;;;3.45;2.17;;;11.40;79.10;;;;;;5074823;28;20033;-86
2022/12/25 12:30:28;;;;;;;2.53;2.20;;;11.40;79.10;;;;;;5058005;28;20028;-85
2022/12/25 12:32:58;;;;;;;2.78;2.10;;;11.40;79.10;;;;;;5058235;28;20037;-85
2022/12/25 12:35:28;;;;;;;2.65;2.15;;;11.40;79.00;;;;;;5076094;28;20048;-85
2022/12/25 12:38:03;;;;;;;2.75;2.28;;;11.50;79.10;;;;;;5058549;28;20059;-85
2022/12/25 12:40:41;;;;;;;4.93;2.20;;;11.50;79.10;;;;;;5057888;28;20028;-86
2022/12/25 12:43:43;;;;;;;3.08;1.98;;;11.50;79.10;;;;;;5073854;28;20067;-85
2022/12/25 12:46:18;;;;;;;3.05;2.08;;;11.50;79.10;;;;;;5058123;28;20137;-86
2022/12/25 12:48:47;;;;;;;2.95;2.10;;;11.50;79.00;;;;;;5074675;28;20048;-87
2022/12/25 12:51:28;;;;;;;2.30;1.83;;;11.50;79.00;;;;;;5074841;28;20059;-84
2022/12/25 12:54:19;;;;;;;2.53;2.10;;;11.50;79.00;;;;;;5074929;28;20036;-86
2022/12/25 12:57:00;;;;;;;2.10;1.73;;;11.50;79.20;;;;;;5075003;28;20029;-87
2022/12/25 12:59:45;;;;;;;3.15;2.25;;;11.50;79.00;;;;;;5074615;28;20032;-82
2022/12/25 13:02:30;;;;;;;;;;;11.50;79.00;;;;;;5074741;28;20054;-84
2022/12/25 13:05:19;;;;;;;1.77;1.52;;;11.50;78.90;;;;;;5041166;28;20317;-83
2022/12/25 13:07:58;;;;;;;2.45;1.80;;;11.60;78.90;;;;;;5075258;28;20020;-84
2022/12/25 13:10:31;;;;;;;2.08;1.70;;;11.60;79.00;;;;;;5057369;28;20070;-84
2022/12/25 13:13:01;;;;;;;2.20;1.98;;;11.60;79.00;;;;;;5074789;28;20033;-83
2022/12/25 13:15:31;;;;;;;1.77;1.67;;;11.60;79.00;;;;;;5074616;28;20032;-84
2022/12/25 13:18:06;;;;;;;2.80;2.10;;;11.60;79.10;;;;;;5074758;28;20039;-84
2022/12/25 13:20:54;;;;;;;2.85;2.10;;;11.60;79.00;;;;;;5040691;28;20056;-84
2022/12/25 13:23:28;;;;;;;2.63;2.10;;;11.60;79.00;;;;;;5074923;28;20029;-84
2022/12/25 13:25:56;;;;;;;2.63;1.95;;;11.60;79.00;;;;;;5074312;28;20060;-84
2022/12/25 13:28:27;;;;;;;2.58;1.98;;;11.60;79.00;;;;;;5080522;28;20050;-85
2022/12/25 13:31:00;;;;;;;2.72;2.00;;;11.60;79.00;;;;;;5081274;28;20032;-86
2022/12/25 13:33:25;;;;;;;2.15;1.70;;;11.60;79.00;;;;;;5076447;28;20064;-84
2022/12/25 13:35:52;;;;;;;3.15;2.10;;;11.60;78.90;;;;;;5040842;28;20399;-84
2022/12/25 13:38:18;;;;;;;2.35;2.00;;;11.70;79.00;;;;;;5074719;28;20048;-85
2022/12/25 13:43:42;;;;;;;2.25;2.05;;;11.70;79.00;;;;;;5074329;28;20028;-84
2022/12/25 13:46:11;;;;;;;2.38;1.70;;;11.70;78.90;;;;;;5056860;28;20037;-84
2022/12/25 13:48:37;;;;;;;2.28;1.88;;;11.70;79.00;;;;;;5073560;28;20035;-85
2022/12/25 13:51:03;;;;;;;2.17;1.88;;;11.70;78.90;;;;;;5073313;28;20040;-82
2022/12/25 13:53:28;;;;;;;3.05;2.10;;;11.70;78.90;;;;;;5074117;28;20068;-83
2022/12/25 13:55:57;;;;;;;2.25;1.77;;;11.70;78.90;;;;;;5073425;28;20123;-82
2022/12/25 13:58:32;;;;;;;2.33;1.85;;;11.70;78.90;;;;;;5039827;28;20060;-83
2022/12/25 14:01:01;;;;;;;2.30;1.90;;;11.70;79.00;;;;;;5073249;28;20035;-80
2022/12/25 14:03:34;;;;;;;3.65;2.10;;;11.80;78.90;;;;;;5072838;28;20115;-82
2022/12/25 14:06:06;;;;;;;2.47;1.98;;;11.80;78.90;;;;;;5056382;28;20037;-83
2022/12/25 14:08:33;;;;;;;2.83;2.05;;;11.80;78.90;;;;;;5074296;28;20100;-82
2022/12/25 14:11:03;;;;;;;2.58;2.22;;;11.80;78.90;;;;;;5072886;28;20119;-84
2022/12/25 14:13:31;;;;;;;2.55;2.17;;;11.80;78.90;;;;;;5073351;28;20075;-85
2022/12/25 14:15:58;;;;;;;2.80;2.08;;;11.80;78.80;;;;;;5056342;28;20059;-84
2022/12/25 14:18:30;;;;;;;2.45;2.05;;;11.80;78.90;;;;;;5074255;28;20028;-87
2022/12/25 14:21:20;;;;;;;2.85;2.20;;;11.80;78.90;;;;;;5073956;28;20050;-86
2022/12/25 14:23:47;;;;;;;2.63;1.90;;;11.80;78.90;;;;;;5056856;28;20029;-83
2022/12/25 14:26:28;;;;;;;2.22;1.80;;;11.80;78.80;;;;;;5039575;28;20037;-83
2022/12/25 14:29:10;;;;;;;2.20;2.00;;;11.80;78.90;;;;;;5074125;28;20111;-83
2022/12/25 14:31:40;;;;;;;2.15;1.95;;;11.80;78.80;;;;;;5073824;28;20058;-83
2022/12/25 14:34:22;;;;;;;2.80;2.08;;;11.90;78.80;;;;;;5072687;28;20485;-84
2022/12/25 14:36:49;;;;;;;2.85;2.10;;;11.80;78.80;;;;;;5073020;28;20066;-84
2022/12/25 14:39:36;;;;;;;2.20;2.00;;;11.80;78.80;;;;;;5039528;28;20051;-85
2022/12/25 14:42:16;;;;;;;2.50;1.98;;;11.80;78.80;;;;;;5056076;28;20051;-84
2022/12/25 14:44:42;;;;;;;2.72;2.20;;;11.90;78.80;;;;;;5040504;28;20029;-84
2022/12/25 14:47:19;;;;;;;2.92;2.25;;;11.90;79.40;;;;;;5072891;28;20130;-84
2022/12/25 14:49:45;;;;;;;2.92;2.47;;;11.90;78.90;;;;;;5073159;28;20173;-85